createdAt,value
2023-03-26T00:03:57.365Z,47.53
2023-03-26T00:09:02.191Z,47.04
2023-03-26T00:14:05.887Z,47.21
2023-03-26T00:19:10.927Z,47.60
2023-03-26T00:24:16.148Z,48.98
2023-03-26T00:29:19.748Z,47.63
2023-03-26T00:34:24.769Z,48.92
2023-03-26T00:39:33.571Z,48.71
2023-03-26T00:44:37.111Z,50.18
2023-03-26T00:49:40.589Z,50.17
2023-03-26T00:54:45.903Z,49.18
2023-03-26T00:59:49.948Z,51.05
2023-03-26T01:04:58.113Z,50.77
2023-03-26T01:10:03.012Z,52.20
2023-03-26T01:15:08.237Z,51.02
2023-03-26T01:20:16.085Z,51.50
2023-03-26T01:25:21.565Z,50.49
2023-03-26T01:30:29.351Z,50.02
2023-03-26T01:35:40.243Z,48.58
2023-03-26T01:40:49.529Z,48.68
2023-03-26T01:45:54.057Z,48.08
2023-03-26T01:50:58.764Z,48.43
2023-03-26T01:56:13.241Z,47.66
2023-03-26T02:01:24.290Z,46.25
2023-03-26T02:06:31.589Z,47.21
2023-03-26T02:11:36.679Z,46.86
2023-03-26T02:16:40.290Z,47.20
2023-03-26T02:21:43.803Z,46.42
2023-03-26T02:26:48.853Z,47.69
2023-03-26T02:31:52.457Z,48.01
2023-03-26T02:36:57.105Z,45.76
2023-03-26T02:42:02.074Z,46.30
2023-03-26T02:47:07.883Z,46.37
2023-03-26T02:52:18.588Z,46.41
2023-03-26T02:57:25.437Z,45.99
2023-03-26T03:03:04.855Z,47.46
2023-03-26T03:08:08.367Z,45.97
2023-03-26T03:13:16.018Z,45.61
2023-03-26T03:18:19.684Z,46.25
2023-03-26T03:23:23.223Z,46.82
2023-03-26T03:28:33.231Z,45.43
2023-03-26T03:33:36.792Z,45.76
2023-03-26T03:38:41.583Z,43.76
2023-03-26T03:43:48.453Z,42.77
2023-03-26T03:48:57.110Z,43.66
2023-03-26T03:54:08.512Z,45.39
2023-03-26T03:59:25.234Z,44.82
2023-03-26T04:04:29.261Z,45.93
2023-03-26T04:09:37.487Z,45.56
2023-03-26T04:14:50.671Z,46.99
2023-03-26T04:19:56.329Z,46.96
2023-03-26T04:25:05.234Z,47.43
2023-03-26T04:30:30.491Z,46.54
2023-03-26T04:35:48.236Z,47.79
2023-03-26T04:40:53.455Z,46.94
2023-03-26T04:46:18.408Z,45.52
2023-03-26T04:51:39.417Z,46.01
2023-03-26T04:56:53.575Z,44.92
2023-03-26T05:02:07.927Z,44.50
2023-03-26T05:07:23.759Z,44.42
2023-03-26T05:12:31.116Z,44.06
2023-03-26T05:17:48.414Z,43.93
2023-03-26T05:23:00.012Z,43.72
2023-03-26T05:28:06.527Z,43.55
2023-03-26T05:33:19.270Z,43.84
2023-03-26T05:38:29.951Z,43.59
2023-03-26T05:43:35.192Z,44.51
2023-03-26T05:48:53.909Z,44.42
2023-03-26T05:53:57.835Z,44.96
2023-03-26T05:59:39.448Z,44.35
2023-03-26T06:05:21.484Z,45.42
2023-03-26T06:10:48.507Z,44.96
2023-03-26T06:15:52.367Z,45.93
2023-03-26T06:21:20.170Z,45.12
2023-03-26T06:26:37.828Z,44.03
2023-03-26T06:32:12.403Z,43.91
2023-03-26T06:37:28.676Z,44.11
2023-03-26T06:43:07.869Z,43.41
2023-03-26T06:48:16.978Z,43.77
2023-03-26T06:53:33.348Z,43.78
2023-03-26T06:59:11.865Z,43.19
2023-03-26T07:04:34.044Z,43.37
2023-03-26T07:09:57.468Z,42.96
2023-03-26T07:15:24.064Z,42.22
2023-03-26T07:20:31.035Z,41.87
2023-03-26T07:25:36.489Z,42.47
2023-03-26T07:31:01.973Z,41.74
2023-03-26T07:36:25.274Z,42.09
2023-03-26T07:41:59.625Z,40.82
2023-03-26T07:47:26.060Z,41.53
2023-03-26T07:52:50.524Z,40.88
2023-03-26T07:58:16.699Z,42.88
2023-03-26T08:03:52.506Z,41.70
2023-03-26T08:09:20.405Z,43.16
2023-03-26T08:14:50.771Z,41.76
2023-03-26T08:20:07.319Z,40.80
2023-03-26T08:25:19.591Z,39.55
2023-03-26T08:30:26.622Z,39.17
2023-03-26T08:35:30.841Z,38.80
2023-03-26T08:40:53.222Z,37.60
2023-03-26T08:46:25.965Z,38.57
2023-03-26T08:51:52.393Z,36.61
2023-03-26T08:57:07.965Z,35.63
2023-03-26T09:02:34.713Z,35.60
2023-03-26T09:07:51.698Z,37.87
2023-03-26T09:13:28.870Z,35.14
2023-03-26T09:19:07.869Z,35.57
2023-03-26T09:24:36.399Z,35.48
2023-03-26T09:30:14.716Z,34.50
2023-03-26T09:35:49.321Z,36.56
2023-03-26T09:40:58.427Z,34.37
2023-03-26T09:46:09.318Z,34.54
2023-03-26T09:51:55.503Z,36.96
2023-03-26T09:57:05.331Z,36.87
2023-03-26T10:02:21.446Z,35.38
2023-03-26T10:07:42.949Z,35.15
2023-03-26T10:12:57.624Z,36.17
2023-03-26T10:18:27.539Z,36.29
2023-03-26T10:23:42.371Z,38.37
2023-03-26T10:29:09.385Z,38.06
2023-03-26T10:34:28.413Z,38.33
2023-03-26T10:39:48.711Z,37.94
2023-03-26T10:45:09.908Z,38.03
2023-03-26T10:50:24.724Z,37.04
2023-03-26T10:55:30.308Z,37.51
2023-03-26T11:00:39.840Z,36.77
2023-03-26T11:05:48.860Z,36.63
2023-03-26T11:10:57.165Z,35.91
2023-03-26T11:16:05.718Z,35.47
2023-03-26T11:21:18.711Z,34.94
2023-03-26T11:26:27.362Z,34.25
2023-03-26T11:31:41.302Z,35.75
2023-03-26T11:36:48.032Z,34.91
2023-03-26T11:41:53.948Z,33.46
2023-03-26T11:47:10.144Z,33.66
2023-03-26T11:52:15.626Z,32.88
2023-03-26T11:57:22.601Z,33.83
2023-03-26T12:02:32.343Z,32.62
2023-03-26T12:07:37.177Z,32.60
2023-03-26T12:12:42.736Z,34.29
2023-03-26T12:17:48.389Z,33.51
2023-03-26T12:22:53.653Z,33.18
2023-03-26T12:28:02.894Z,32.17
2023-03-26T12:33:16.198Z,32.76
2023-03-26T12:38:24.782Z,32.47
2023-03-26T12:44:53.908Z,33.12
2023-03-26T12:49:01.086Z,31.16
2023-03-26T12:54:33.114Z,32.65
2023-03-26T12:59:47.512Z,33.81
2023-03-26T13:05:06.330Z,34.47
2023-03-26T13:10:30.906Z,33.99
2023-03-26T13:15:36.487Z,32.93
2023-03-26T13:20:51.358Z,33.59
2023-03-26T13:26:01.548Z,33.73
2023-03-26T13:31:08.428Z,33.14
2023-03-26T13:36:23.701Z,34.48
2023-03-26T13:41:35.251Z,35.06
2023-03-26T13:46:42.511Z,34.57
2023-03-26T13:51:50.682Z,34.17
2023-03-26T13:56:58.421Z,33.74
2023-03-26T14:02:06.358Z,36.16
2023-03-26T14:07:15.706Z,37.40
2023-03-26T14:12:44.592Z,36.51
2023-03-26T14:17:52.495Z,37.36
2023-03-26T14:23:12.809Z,38.62
2023-03-26T14:28:28.155Z,36.72
2023-03-26T14:33:43.283Z,36.67
2023-03-26T14:39:09.372Z,39.39
2023-03-26T14:44:31.552Z,36.73
2023-03-26T14:50:42.520Z,36.31
2023-03-26T14:56:08.298Z,35.42
2023-03-26T15:01:29.590Z,35.77
2023-03-26T15:07:07.321Z,36.63
2023-03-26T15:12:23.486Z,35.34
2023-03-26T15:18:08.339Z,37.44
2023-03-26T15:24:05.717Z,35.94
2023-03-26T15:29:36.840Z,35.84
2023-03-26T15:35:04.007Z,36.03
2023-03-26T15:40:36.263Z,37.74
2023-03-26T15:45:41.939Z,38.13
2023-03-26T15:50:53.709Z,37.54
2023-03-26T15:56:13.760Z,39.78
2023-03-26T16:01:32.134Z,38.80
2023-03-26T16:06:41.624Z,38.66
2023-03-26T16:11:51.812Z,36.99
2023-03-26T16:16:59.366Z,38.88
2023-03-26T16:22:05.924Z,38.38
2023-03-26T16:27:31.943Z,38.16
2023-03-26T16:32:37.684Z,35.97
2023-03-26T16:37:45.626Z,35.69
2023-03-26T16:42:51.136Z,38.46
2023-03-26T16:48:02.881Z,37.67
2023-03-26T16:53:22.019Z,37.29
2023-03-26T16:58:31.596Z,36.95
2023-03-26T17:03:44.779Z,37.50
2023-03-26T17:08:56.411Z,37.39
2023-03-26T17:14:08.651Z,37.45
2023-03-26T17:19:25.474Z,36.04
2023-03-26T17:24:40.601Z,37.17
2023-03-26T17:30:27.992Z,36.15
2023-03-26T17:35:42.766Z,35.52
2023-03-26T17:40:55.697Z,35.40
2023-03-26T17:46:03.937Z,37.39
2023-03-26T17:51:30.288Z,35.00
2023-03-26T17:56:37.583Z,34.96
2023-03-26T18:01:44.079Z,35.63
2023-03-26T18:07:03.931Z,35.47
2023-03-26T18:12:32.183Z,35.18
2023-03-26T18:17:41.419Z,34.58
2023-03-26T18:22:47.256Z,34.26
2023-03-26T18:27:50.682Z,35.79
2023-03-26T18:33:00.197Z,34.90
2023-03-26T18:38:05.922Z,37.13
2023-03-26T18:43:28.595Z,37.12
2023-03-26T18:48:37.768Z,37.11
2023-03-26T18:53:47.815Z,37.88
2023-03-26T18:58:52.735Z,37.58
2023-03-26T19:03:56.342Z,38.20
2023-03-26T19:09:01.316Z,38.17
2023-03-26T19:14:08.629Z,37.42
2023-03-26T19:19:18.036Z,37.67
2023-03-26T19:24:23.748Z,39.02
2023-03-26T19:29:30.942Z,39.56
2023-03-26T19:34:35.787Z,41.30
2023-03-26T19:39:42.628Z,39.74
2023-03-26T19:44:46.249Z,40.43
2023-03-26T19:49:52.930Z,42.34
2023-03-26T19:55:03.659Z,39.68
2023-03-26T20:00:14.052Z,39.17
2023-03-26T20:05:22.829Z,42.30
2023-03-26T20:10:27.908Z,40.29
2023-03-26T20:15:34.205Z,43.31
2023-03-26T20:20:37.970Z,40.71
2023-03-26T20:25:49.692Z,39.96
2023-03-26T20:30:54.382Z,40.15
2023-03-26T20:35:59.811Z,38.71
2023-03-26T20:41:05.172Z,40.00
2023-03-26T20:46:12.393Z,41.10
2023-03-26T20:51:17.276Z,41.98
2023-03-26T20:56:22.610Z,40.51
2023-03-26T21:01:26.190Z,40.54
2023-03-26T21:06:29.753Z,40.16
2023-03-26T21:11:44.343Z,40.59
2023-03-26T21:16:48.506Z,41.72
2023-03-26T21:21:59.094Z,41.76
2023-03-26T21:27:09.965Z,41.96
2023-03-26T21:32:14.651Z,41.29
2023-03-26T21:37:19.067Z,40.47
2023-03-26T21:42:26.773Z,42.12
2023-03-26T21:47:31.162Z,40.75
2023-03-26T21:52:35.326Z,39.43
2023-03-26T21:57:49.589Z,40.39
2023-03-26T22:03:01.780Z,41.46
2023-03-26T22:08:07.014Z,39.91
2023-03-26T22:13:11.909Z,41.78
2023-03-26T22:18:15.354Z,42.42
2023-03-26T22:23:18.848Z,42.04
2023-03-26T22:28:23.868Z,41.48
2023-03-26T22:33:27.606Z,39.64
2023-03-26T22:38:31.036Z,42.04
2023-03-26T22:43:35.889Z,41.97
2023-03-26T22:48:40.882Z,40.98
2023-03-26T22:53:44.504Z,41.26
2023-03-26T22:58:49.324Z,41.13
2023-03-26T23:03:52.781Z,39.36
2023-03-26T23:08:57.000Z,41.66
2023-03-26T23:14:02.196Z,40.10
2023-03-26T23:19:05.676Z,41.19
2023-03-26T23:24:09.334Z,41.17
2023-03-26T23:29:14.313Z,43.14
2023-03-26T23:34:18.524Z,40.34
2023-03-26T23:39:22.095Z,42.01
2023-03-26T23:44:29.512Z,40.20
2023-03-26T23:49:32.935Z,39.53
2023-03-26T23:54:36.873Z,37.69
2023-03-26T23:59:46.023Z,37.64
